createdAt,value
2023-06-19T00:00:37.552Z,20.00
2023-06-19T00:04:39.560Z,19.90
2023-06-19T00:08:44.218Z,19.60
2023-06-19T00:12:46.209Z,19.30
2023-06-19T00:16:48.368Z,19.40
2023-06-19T00:20:50.440Z,19.30
2023-06-19T00:24:53.164Z,19.20
2023-06-19T00:28:55.189Z,19.10
2023-06-19T00:32:58.731Z,19.10
2023-06-19T00:37:00.921Z,18.60
2023-06-19T00:41:02.821Z,18.40
2023-06-19T00:45:05.233Z,18.60
2023-06-19T00:49:08.655Z,18.70
2023-06-19T00:53:11.462Z,18.50
2023-06-19T00:57:13.484Z,18.40
2023-06-19T01:01:16.588Z,18.50
2023-06-19T01:05:20.464Z,18.70
2023-06-19T01:09:26.997Z,18.90
2023-06-19T01:13:31.771Z,18.80
2023-06-19T01:17:36.694Z,18.70
2023-06-19T01:21:39.408Z,18.70
2023-06-19T01:25:41.512Z,18.60
2023-06-19T01:29:43.698Z,18.60
2023-06-19T01:33:47.209Z,18.60
2023-06-19T01:37:53.623Z,18.60
2023-06-19T01:41:56.421Z,18.60
2023-06-19T01:45:59.554Z,18.70
2023-06-19T01:50:03.294Z,18.60
2023-06-19T01:54:05.531Z,18.60
2023-06-19T01:58:08.163Z,18.90
2023-06-19T02:02:11.477Z,19.00
2023-06-19T02:06:13.569Z,18.80
2023-06-19T02:10:15.642Z,18.60
2023-06-19T02:14:18.332Z,18.90
2023-06-19T02:18:20.364Z,19.10
2023-06-19T02:22:22.300Z,19.20
2023-06-19T02:26:24.431Z,19.00
2023-06-19T02:30:26.689Z,18.60
2023-06-19T02:34:29.009Z,18.70
2023-06-19T02:38:31.262Z,18.70
2023-06-19T02:42:33.852Z,18.40
2023-06-19T02:46:37.011Z,18.40
2023-06-19T02:50:39.286Z,18.20
2023-06-19T02:54:41.408Z,18.40
2023-06-19T02:58:43.365Z,18.60
2023-06-19T03:02:45.608Z,18.60
2023-06-19T03:06:47.845Z,18.80
2023-06-19T03:10:49.969Z,18.40
2023-06-19T03:14:51.850Z,18.60
2023-06-19T03:18:53.887Z,18.60
2023-06-19T03:22:58.389Z,18.40
2023-06-19T03:27:01.754Z,18.60
2023-06-19T03:31:04.100Z,18.60
2023-06-19T03:35:06.570Z,18.70
2023-06-19T03:39:11.953Z,18.80
2023-06-19T03:43:14.926Z,19.00
2023-06-19T03:47:18.982Z,19.10
2023-06-19T03:51:21.052Z,19.20
2023-06-19T03:55:23.106Z,19.20
2023-06-19T03:59:25.718Z,19.20
2023-06-19T04:03:28.879Z,19.10
2023-06-19T04:07:32.714Z,19.10
2023-06-19T04:11:34.722Z,19.20
2023-06-19T04:15:38.623Z,19.20
2023-06-19T04:19:40.820Z,19.00
2023-06-19T04:23:42.768Z,18.90
2023-06-19T04:27:45.911Z,18.80
2023-06-19T04:31:48.095Z,18.70
2023-06-19T04:35:50.183Z,18.80
2023-06-19T04:39:52.314Z,19.10
2023-06-19T04:43:54.283Z,19.10
2023-06-19T04:47:56.300Z,19.00
2023-06-19T04:51:58.808Z,18.90
2023-06-19T04:56:02.667Z,19.00
2023-06-19T05:00:11.221Z,19.20
2023-06-19T05:04:13.444Z,19.50
2023-06-19T05:08:15.528Z,19.60
2023-06-19T05:12:17.594Z,19.90
2023-06-19T05:16:20.950Z,20.00
2023-06-19T05:20:23.364Z,19.90
2023-06-19T05:24:25.616Z,19.50
2023-06-19T05:28:27.870Z,19.60
2023-06-19T05:32:29.930Z,19.60
2023-06-19T05:36:32.072Z,20.00
2023-06-19T05:40:34.242Z,20.10
2023-06-19T05:44:36.634Z,20.30
2023-06-19T05:48:38.840Z,20.80
2023-06-19T05:52:44.248Z,21.00
2023-06-19T05:56:46.321Z,21.30
2023-06-19T06:00:48.518Z,21.50
2023-06-19T06:04:50.686Z,21.50
2023-06-19T06:08:52.897Z,21.50
2023-06-19T06:12:54.921Z,21.60
2023-06-19T06:16:57.071Z,21.50
2023-06-19T06:21:00.243Z,21.60
2023-06-19T06:25:02.344Z,21.60
2023-06-19T06:29:04.383Z,21.50
2023-06-19T06:33:06.475Z,21.70
2023-06-19T06:37:08.560Z,21.80
2023-06-19T06:41:10.678Z,21.90
2023-06-19T06:45:12.839Z,21.90
2023-06-19T06:49:17.368Z,22.00
2023-06-19T06:53:19.491Z,21.90
2023-06-19T06:57:21.662Z,21.70
2023-06-19T07:01:23.766Z,21.50
2023-06-19T07:05:26.056Z,21.60
2023-06-19T07:09:28.072Z,21.50
2023-06-19T07:13:30.158Z,21.60
2023-06-19T07:17:32.148Z,21.40
2023-06-19T07:21:34.190Z,21.80
2023-06-19T07:25:36.338Z,21.90
2023-06-19T07:29:38.847Z,21.80
2023-06-19T07:33:40.931Z,21.70
2023-06-19T07:37:43.115Z,21.50
2023-06-19T07:41:46.891Z,21.60
2023-06-19T07:45:49.482Z,22.00
2023-06-19T07:49:51.578Z,22.00
2023-06-19T07:53:53.689Z,21.90
2023-06-19T07:57:57.915Z,22.00
2023-06-19T08:01:59.904Z,22.20
2023-06-19T08:06:01.924Z,22.40
2023-06-19T08:10:13.296Z,22.00
2023-06-19T08:14:16.366Z,22.20
2023-06-19T08:18:18.599Z,22.30
2023-06-19T08:22:20.908Z,22.40
2023-06-19T08:26:23.525Z,22.10
2023-06-19T08:30:26.040Z,22.20
2023-06-19T08:34:28.792Z,22.40
2023-06-19T08:38:31.059Z,22.40
2023-06-19T08:42:33.368Z,22.30
2023-06-19T08:46:38.106Z,22.50
2023-06-19T08:50:40.153Z,22.60
2023-06-19T08:54:45.470Z,22.70
2023-06-19T08:58:48.026Z,23.20
2023-06-19T09:03:01.056Z,23.20
2023-06-19T09:07:14.809Z,23.30
2023-06-19T09:11:23.051Z,23.60
2023-06-19T09:15:27.733Z,23.60
2023-06-19T09:19:30.026Z,23.70
2023-06-19T09:23:32.038Z,23.90
2023-06-19T09:27:38.154Z,23.70
2023-06-19T09:31:46.033Z,23.50
2023-06-19T09:35:52.229Z,23.80
2023-06-19T09:40:01.996Z,23.90
2023-06-19T09:44:13.501Z,24.00
2023-06-19T09:48:18.595Z,23.90
2023-06-19T09:52:26.405Z,24.00
2023-06-19T09:56:39.143Z,24.20
2023-06-19T10:00:41.781Z,24.20
2023-06-19T10:04:46.533Z,24.50
2023-06-19T10:08:49.147Z,24.10
2023-06-19T10:12:51.291Z,24.10
2023-06-19T10:16:53.327Z,24.30
2023-06-19T10:20:59.342Z,24.70
2023-06-19T10:25:01.576Z,24.60
2023-06-19T10:29:15.559Z,24.90
2023-06-19T10:33:17.527Z,25.00
2023-06-19T10:37:19.679Z,25.60
2023-06-19T10:41:23.728Z,25.80
2023-06-19T10:45:29.677Z,25.70
2023-06-19T10:49:33.258Z,25.80
2023-06-19T10:53:35.237Z,25.80
2023-06-19T10:57:37.490Z,25.90
2023-06-19T11:01:45.485Z,26.10
2023-06-19T11:05:49.170Z,26.00
2023-06-19T11:09:51.321Z,26.30
2023-06-19T11:13:53.347Z,26.00
2023-06-19T11:17:55.316Z,25.30
2023-06-19T11:21:58.610Z,25.20
2023-06-19T11:26:07.363Z,23.40
2023-06-19T11:30:10.434Z,24.50
2023-06-19T11:34:12.833Z,24.90
2023-06-19T11:38:23.543Z,24.70
2023-06-19T11:42:26.467Z,24.80
2023-06-19T11:46:32.756Z,24.60
2023-06-19T11:50:34.773Z,25.00
2023-06-19T11:54:36.948Z,25.10
2023-06-19T11:58:38.873Z,25.00
2023-06-19T12:02:41.014Z,25.10
2023-06-19T12:06:43.261Z,25.10
2023-06-19T12:10:45.274Z,24.80
2023-06-19T12:14:47.476Z,24.80
2023-06-19T12:18:49.553Z,25.20
2023-06-19T12:22:51.431Z,25.80
2023-06-19T12:26:53.627Z,26.30
2023-06-19T12:30:57.201Z,26.60
2023-06-19T12:34:59.209Z,26.50
2023-06-19T12:39:01.817Z,26.10
2023-06-19T12:43:04.099Z,26.20
2023-06-19T12:47:06.993Z,26.20
2023-06-19T12:51:11.563Z,26.10
2023-06-19T12:55:13.608Z,26.30
2023-06-19T12:59:15.734Z,25.90
2023-06-19T13:03:17.821Z,24.00
2023-06-19T13:07:20.353Z,23.60
2023-06-19T13:11:22.395Z,23.50
2023-06-19T13:15:24.262Z,24.20
2023-06-19T13:19:26.131Z,24.30
2023-06-19T13:23:27.976Z,24.70
2023-06-19T13:27:30.100Z,24.60
2023-06-19T13:31:32.014Z,24.60
2023-06-19T13:35:34.587Z,25.30
2023-06-19T13:39:36.480Z,25.80
2023-06-19T13:43:40.400Z,25.90
2023-06-19T13:47:42.422Z,25.50
2023-06-19T13:51:45.369Z,25.10
2023-06-19T13:55:48.041Z,24.70
2023-06-19T13:59:50.502Z,25.20
2023-06-19T14:03:52.667Z,26.00
2023-06-19T14:07:56.005Z,25.90
2023-06-19T14:11:58.129Z,25.20
2023-06-19T14:16:00.066Z,25.20
2023-06-19T14:20:01.945Z,26.00
2023-06-19T14:24:04.314Z,26.50
2023-06-19T14:28:06.451Z,26.40
2023-06-19T14:32:08.477Z,25.80
2023-06-19T14:36:10.391Z,25.60
2023-06-19T14:40:12.529Z,26.40
2023-06-19T14:44:14.803Z,26.10
2023-06-19T14:48:16.934Z,26.60
2023-06-19T14:52:21.012Z,25.60
2023-06-19T14:56:23.636Z,25.70
2023-06-19T15:00:25.976Z,26.30
2023-06-19T15:04:28.279Z,26.40
2023-06-19T15:08:32.393Z,26.60
2023-06-19T15:12:35.740Z,26.80
2023-06-19T15:16:38.150Z,26.80
2023-06-19T15:20:40.612Z,26.50
2023-06-19T15:24:43.005Z,26.50
2023-06-19T15:28:45.333Z,26.70
2023-06-19T15:32:47.462Z,26.70
2023-06-19T15:36:49.363Z,26.90
2023-06-19T15:40:51.401Z,26.20
2023-06-19T15:44:53.653Z,26.90
2023-06-19T15:48:56.073Z,27.30
2023-06-19T15:52:58.000Z,27.60
2023-06-19T15:57:00.242Z,27.20
2023-06-19T16:01:02.559Z,27.30
2023-06-19T16:05:05.722Z,27.30
2023-06-19T16:09:08.545Z,27.80
2023-06-19T16:13:12.148Z,26.00
2023-06-19T16:17:14.076Z,26.60
2023-06-19T16:21:18.164Z,27.30
2023-06-19T16:25:20.534Z,25.80
2023-06-19T16:29:22.682Z,26.40
2023-06-19T16:33:24.879Z,26.90
2023-06-19T16:37:26.926Z,26.20
2023-06-19T16:41:32.886Z,26.60
2023-06-19T16:45:37.272Z,26.40
2023-06-19T16:49:39.289Z,26.70
2023-06-19T16:53:41.351Z,26.80
2023-06-19T16:57:43.397Z,26.20
2023-06-19T17:01:46.631Z,25.80
2023-06-19T17:05:48.989Z,24.90
2023-06-19T17:09:51.026Z,24.60
2023-06-19T17:13:53.218Z,25.00
2023-06-19T17:17:55.151Z,25.50
2023-06-19T17:21:57.043Z,25.60
2023-06-19T17:25:59.080Z,26.00
2023-06-19T17:30:02.530Z,26.10
2023-06-19T17:34:05.685Z,26.00
2023-06-19T17:38:07.735Z,25.90
2023-06-19T17:42:11.008Z,25.90
2023-06-19T17:46:13.290Z,25.80
2023-06-19T17:50:15.472Z,25.70
2023-06-19T17:54:20.769Z,25.60
2023-06-19T17:58:24.666Z,25.50
2023-06-19T18:02:26.868Z,25.30
2023-06-19T18:06:29.183Z,25.30
2023-06-19T18:10:31.266Z,25.10
2023-06-19T18:14:33.132Z,24.70
2023-06-19T18:18:35.019Z,24.80
2023-06-19T18:22:39.122Z,24.90
2023-06-19T18:26:41.139Z,24.90
2023-06-19T18:30:43.255Z,24.90
2023-06-19T18:34:45.510Z,24.80
2023-06-19T18:38:47.970Z,24.80
2023-06-19T18:42:49.949Z,24.80
2023-06-19T18:46:52.217Z,24.70
2023-06-19T18:50:54.163Z,24.60
2023-06-19T18:54:56.256Z,24.50
2023-06-19T18:58:58.211Z,24.40
2023-06-19T19:03:00.402Z,24.30
2023-06-19T19:07:02.578Z,24.20
2023-06-19T19:11:04.704Z,24.10
2023-06-19T19:15:07.586Z,24.10
2023-06-19T19:19:09.486Z,24.00
2023-06-19T19:23:11.420Z,23.80
2023-06-19T19:27:13.438Z,23.50
2023-06-19T19:31:15.489Z,23.30
2023-06-19T19:35:17.622Z,23.30
2023-06-19T19:39:19.580Z,23.20
2023-06-19T19:43:21.657Z,23.20
2023-06-19T19:47:23.639Z,23.20
2023-06-19T19:51:25.704Z,23.20
2023-06-19T19:55:27.709Z,23.10
2023-06-19T19:59:30.140Z,23.00
2023-06-19T20:03:33.200Z,22.90
2023-06-19T20:07:35.422Z,22.80
2023-06-19T20:11:37.822Z,22.60
2023-06-19T20:15:39.859Z,22.50
2023-06-19T20:19:41.900Z,22.50
2023-06-19T20:23:43.915Z,22.50
2023-06-19T20:27:58.891Z,22.40
2023-06-19T20:32:08.236Z,22.20
2023-06-19T20:36:10.319Z,22.00
2023-06-19T20:40:12.488Z,21.80
2023-06-19T20:44:14.821Z,21.60
2023-06-19T20:48:16.897Z,21.60
2023-06-19T20:52:18.905Z,21.50
2023-06-19T20:56:20.995Z,21.50
2023-06-19T21:00:23.762Z,20.90
2023-06-19T21:04:26.129Z,20.90
2023-06-19T21:08:31.078Z,21.10
2023-06-19T21:12:33.411Z,21.20
2023-06-19T21:16:35.451Z,21.20
2023-06-19T21:20:37.376Z,21.30
2023-06-19T21:24:39.930Z,21.20
2023-06-19T21:28:41.912Z,21.20
2023-06-19T21:32:44.427Z,21.00
2023-06-19T21:36:46.360Z,20.80
2023-06-19T21:40:48.394Z,20.80
2023-06-19T21:44:50.430Z,20.80
2023-06-19T21:48:52.456Z,20.80
2023-06-19T21:52:54.638Z,20.60
2023-06-19T21:56:56.910Z,20.80
2023-06-19T22:00:59.071Z,20.60
2023-06-19T22:05:01.407Z,20.60
2023-06-19T22:09:03.692Z,20.80
2023-06-19T22:13:06.008Z,20.80
2023-06-19T22:17:08.773Z,20.80
2023-06-19T22:21:11.569Z,20.70
2023-06-19T22:25:14.032Z,20.30
2023-06-19T22:29:16.121Z,19.50
2023-06-19T22:33:18.162Z,19.60
2023-06-19T22:37:20.228Z,19.80
2023-06-19T22:41:22.208Z,19.90
2023-06-19T22:45:24.535Z,20.20
2023-06-19T22:49:30.261Z,20.10
2023-06-19T22:53:32.472Z,19.90
2023-06-19T22:57:35.606Z,19.70
2023-06-19T23:01:38.233Z,19.70
2023-06-19T23:05:40.347Z,19.70
2023-06-19T23:09:42.629Z,19.80
2023-06-19T23:13:44.663Z,19.70
2023-06-19T23:17:46.849Z,19.60
2023-06-19T23:21:49.048Z,19.40
2023-06-19T23:25:51.421Z,19.40
2023-06-19T23:29:53.473Z,19.50
2023-06-19T23:34:00.193Z,19.60
2023-06-19T23:38:02.420Z,19.70
2023-06-19T23:42:04.641Z,19.50
2023-06-19T23:46:09.823Z,19.30
2023-06-19T23:50:12.139Z,19.40
2023-06-19T23:54:14.222Z,19.50
2023-06-19T23:58:16.229Z,19.40
